Time,TemperatureF,DewpointF,PressureIn,WindDirection,WindDirectionDegrees,WindSpeedMPH,WindSpeedGustMPH,Humidity,HourlyPrecipIn,Conditions,Clouds,dailyrainin,SoftwareType,DateUTC
2013-08-20 00:05:00,65.5,63.4,30.07,SSE,161,0.0,0.0,93,0.00,,,0.00,Wunderground v.1.15,2013-08-20 05:05:00,
2013-08-20 00:35:00,65.0,63.5,30.07,SSE,161,0.0,0.0,95,0.00,,,0.00,Wunderground v.1.15,2013-08-20 05:35:00,
2013-08-20 01:05:00,64.8,63.3,30.07,SSE,161,0.0,0.0,95,0.00,,,0.00,Wunderground v.1.15,2013-08-20 06:05:00,
2013-08-20 01:34:00,64.3,62.8,30.06,SSE,161,0.0,0.0,95,0.00,,,0.00,Wunderground v.1.15,2013-08-20 06:34:00,
2013-08-20 02:05:00,63.9,62.7,30.06,SSE,160,0.0,0.0,96,0.00,,,0.00,Wunderground v.1.15,2013-08-20 07:05:00,
2013-08-20 02:35:00,63.4,62.5,30.06,SSE,158,0.0,0.0,97,0.00,,,0.00,Wunderground v.1.15,2013-08-20 07:35:00,
2013-08-20 03:05:00,63.1,62.2,30.06,SSE,161,0.0,0.0,97,0.00,,,0.00,Wunderground v.1.15,2013-08-20 08:05:00,
2013-08-20 03:35:00,63.1,62.5,30.06,SSE,160,0.0,0.0,98,0.00,,,0.00,Wunderground v.1.15,2013-08-20 08:35:00,
2013-08-20 04:05:00,62.7,62.1,30.06,SSE,154,0.0,0.0,98,0.00,,,0.00,Wunderground v.1.15,2013-08-20 09:05:00,
2013-08-20 04:34:00,62.0,61.4,29.90,SSE,160,0.0,0.0,98,0.00,,,0.00,Wunderground v.1.15,2013-08-20 09:34:00,
2013-08-20 05:05:00,61.6,61.3,30.08,SSE,161,0.0,0.0,99,0.00,,,0.00,Wunderground v.1.15,2013-08-20 10:05:00,
2013-08-20 05:35:00,61.6,61.3,29.90,SSE,161,0.0,0.0,99,0.00,,,0.00,Wunderground v.1.15,2013-08-20 10:35:00,
2013-08-20 06:05:00,61.8,61.8,30.09,SSE,161,0.0,0.0,100,0.00,,,0.00,Wunderground v.1.15,2013-08-20 11:05:00,
2013-08-20 06:35:00,61.8,61.8,30.10,SSE,161,0.0,0.0,100,0.00,,,0.00,Wunderground v.1.15,2013-08-20 11:35:00,
2013-08-20 07:04:00,62.3,62.3,30.11,SSE,161,0.0,0.0,100,0.00,,,0.00,Wunderground v.1.15,2013-08-20 12:04:00,
2013-08-20 07:34:00,63.7,63.7,30.12,SSE,161,0.0,0.0,100,0.00,,,0.00,Wunderground v.1.15,2013-08-20 12:34:00,
2013-08-20 08:05:00,66.1,66.1,30.13,SSE,162,0.0,0.0,100,0.00,,,0.00,Wunderground v.1.15,2013-08-20 13:05:00,
2013-08-20 08:35:00,68.3,68.3,30.13,SSE,162,0.0,0.0,100,0.00,,,0.00,Wunderground v.1.15,2013-08-20 13:35:00,
2013-08-20 09:05:00,70.8,69.6,30.13,SSE,162,0.0,0.0,96,0.00,,,0.00,Wunderground v.1.15,2013-08-20 14:05:00,
2013-08-20 09:35:00,73.3,68.5,30.14,WSW,244,0.0,0.0,85,0.00,,,0.00,Wunderground v.1.15,2013-08-20 14:35:00,
2013-08-20 10:05:00,75.8,69.2,30.13,SE,138,0.0,0.0,80,0.00,,,0.00,Wunderground v.1.15,2013-08-20 15:05:00,
2013-08-20 10:35:00,76.8,68.3,30.13,SSE,168,0.0,0.0,75,0.00,,,0.00,Wunderground v.1.15,2013-08-20 15:35:00,
2013-08-20 11:04:00,78.1,68.7,30.13,West,260,0.0,0.0,73,0.00,,,0.00,Wunderground v.1.15,2013-08-20 16:04:00,
2013-08-20 11:34:00,79.6,67.2,30.12,SW,219,0.0,0.0,66,0.00,,,0.00,Wunderground v.1.15,2013-08-20 16:34:00,
2013-08-20 12:05:00,81.4,68.5,30.12,ESE,103,0.0,3.0,65,0.00,,,0.00,Wunderground v.1.15,2013-08-20 17:05:00,
2013-08-20 12:35:00,81.8,67.5,30.11,SW,227,0.0,0.0,62,0.00,,,0.00,Wunderground v.1.15,2013-08-20 17:35:00,
2013-08-20 13:05:00,82.6,68.3,30.10,SW,229,0.0,0.0,62,0.00,,,0.00,Wunderground v.1.15,2013-08-20 18:05:00,
2013-08-20 13:35:00,84.3,67.9,30.09,WSW,240,0.0,0.0,58,0.00,,,0.00,Wunderground v.1.15,2013-08-20 18:35:00,
2013-08-20 14:05:00,82.8,68.0,30.09,SW,226,0.0,0.0,61,0.00,,,0.00,Wunderground v.1.15,2013-08-20 19:05:00,
2013-08-20 14:35:00,84.7,67.3,30.08,SW,224,1.0,2.0,56,0.00,,,0.00,Wunderground v.1.15,2013-08-20 19:35:00,
2013-08-20 15:05:00,82.6,67.3,30.07,SW,220,0.0,0.0,60,0.00,,,0.00,Wunderground v.1.15,2013-08-20 20:05:00,
2013-08-20 15:35:00,82.6,67.8,30.07,WSW,250,1.0,1.0,61,0.00,,,0.00,Wunderground v.1.15,2013-08-20 20:35:00,
2013-08-20 16:05:00,82.8,68.9,30.06,NE,37,0.0,0.0,63,0.00,,,0.00,Wunderground v.1.15,2013-08-20 21:05:00,
2013-08-20 16:35:00,83.2,67.4,30.06,ENE,78,0.0,0.0,59,0.00,,,0.00,Wunderground v.1.15,2013-08-20 21:35:00,
2013-08-20 17:05:00,82.2,69.7,30.05,ENE,75,0.0,0.0,66,0.00,,,0.00,Wunderground v.1.15,2013-08-20 22:05:00,
2013-08-20 17:35:00,82.6,69.6,30.05,SE,124,0.0,0.0,65,0.00,,,0.00,Wunderground v.1.15,2013-08-20 22:35:00,
2013-08-20 18:05:00,81.2,69.2,30.05,South,191,0.0,0.0,67,0.00,,,0.00,Wunderground v.1.15,2013-08-20 23:05:00,
2013-08-20 18:34:00,80.7,69.6,30.05,South,189,0.0,0.0,69,0.00,,,0.00,Wunderground v.1.15,2013-08-20 23:34:00,
2013-08-20 19:05:00,79.8,70.0,30.05,South,189,0.0,0.0,72,0.00,,,0.00,Wunderground v.1.15,2013-08-21 00:05:00,
2013-08-20 19:35:00,77.6,69.4,30.05,South,189,0.0,0.0,76,0.00,,,0.00,Wunderground v.1.15,2013-08-21 00:35:00,
2013-08-20 20:05:00,75.6,68.6,30.05,South,189,0.0,0.0,79,0.00,,,0.00,Wunderground v.1.15,2013-08-21 01:05:00,
2013-08-20 20:35:00,73.9,68.1,30.06,South,189,0.0,0.0,82,0.00,,,0.00,Wunderground v.1.15,2013-08-21 01:35:00,
2013-08-20 21:05:00,72.7,67.6,30.06,South,191,0.0,0.0,84,0.00,,,0.00,Wunderground v.1.15,2013-08-21 02:05:00,
2013-08-20 21:35:00,71.6,67.9,30.06,South,189,0.0,0.0,88,0.00,,,0.00,Wunderground v.1.15,2013-08-21 02:35:00,
2013-08-20 22:05:00,70.9,67.5,30.07,South,189,0.0,0.0,89,0.00,,,0.00,Wunderground v.1.15,2013-08-21 03:05:00,
2013-08-20 22:35:00,70.3,67.9,30.07,SSW,192,0.0,0.0,92,0.00,,,0.00,Wunderground v.1.15,2013-08-21 03:35:00,
2013-08-20 23:05:00,69.6,67.5,30.07,South,191,0.0,0.0,93,0.00,,,0.00,Wunderground v.1.15,2013-08-21 04:05:00,
2013-08-20 23:35:00,68.9,66.8,30.07,South,189,0.0,0.0,93,0.00,,,0.00,Wunderground v.1.15,2013-08-21 04:35:00,